sensor_id;sensor_type;location;lat;lon;timestamp;pressure;altitude;pressure_sealevel;temperature;humidity
54808;BME280;40708;50.364;7.550;2023-04-07T00:01:13;100742.06;;;7.88;100.00
54808;BME280;40708;50.364;7.550;2023-04-07T00:03:38;100735.94;;;7.89;100.00
54808;BME280;40708;50.364;7.550;2023-04-07T00:06:05;100737.78;;;7.93;100.00
54808;BME280;40708;50.364;7.550;2023-04-07T00:08:30;100745.69;;;7.93;100.00
54808;BME280;40708;50.364;7.550;2023-04-07T00:10:55;100735.16;;;7.95;100.00
54808;BME280;40708;50.364;7.550;2023-04-07T00:13:21;100736.94;;;7.96;100.00
54808;BME280;40708;50.364;7.550;2023-04-07T00:15:46;100732.50;;;7.95;100.00
54808;BME280;40708;50.364;7.550;2023-04-07T00:18:12;100729.84;;;7.95;100.00
54808;BME280;40708;50.364;7.550;2023-04-07T00:20:37;100717.56;;;7.97;100.00
54808;BME280;40708;50.364;7.550;2023-04-07T00:23:02;100721.97;;;7.98;100.00
54808;BME280;40708;50.364;7.550;2023-04-07T00:25:27;100714.06;;;7.98;100.00
54808;BME280;40708;50.364;7.550;2023-04-07T00:27:53;100706.13;;;7.99;100.00
54808;BME280;40708;50.364;7.550;2023-04-07T00:30:18;100714.06;;;7.99;100.00
54808;BME280;40708;50.364;7.550;2023-04-07T00:32:43;100710.56;;;8.00;100.00
54808;BME280;40708;50.364;7.550;2023-04-07T00:35:08;100714.09;;;8.01;100.00
54808;BME280;40708;50.364;7.550;2023-04-07T00:37:34;100710.56;;;8.02;100.00
54808;BME280;40708;50.364;7.550;2023-04-07T00:39:59;100700.84;;;7.99;100.00
54808;BME280;40708;50.364;7.550;2023-04-07T00:42:25;100701.75;;;7.98;100.00
54808;BME280;40708;50.364;7.550;2023-04-07T00:44:50;100701.75;;;8.00;100.00
54808;BME280;40708;50.364;7.550;2023-04-07T00:47:16;100692.97;;;8.01;100.00
54808;BME280;40708;50.364;7.550;2023-04-07T00:49:41;100685.94;;;8.01;100.00
54808;BME280;40708;50.364;7.550;2023-04-07T00:52:07;100678.06;;;8.06;100.00
54808;BME280;40708;50.364;7.550;2023-04-07T00:54:36;100671.00;;;8.05;100.00
54808;BME280;40708;50.364;7.550;2023-04-07T00:57:01;100667.50;;;8.04;100.00
54808;BME280;40708;50.364;7.550;2023-04-07T00:59:26;100660.41;;;8.05;100.00
54808;BME280;40708;50.364;7.550;2023-04-07T01:04:48;100664.84;;;8.06;100.00
54808;BME280;40708;50.364;7.550;2023-04-07T01:07:18;100662.22;;;8.07;100.00
54808;BME280;40708;50.364;7.550;2023-04-07T01:10:02;100656.94;;;8.07;100.00
54808;BME280;40708;50.364;7.550;2023-04-07T01:13:02;100662.22;;;8.07;100.00
54808;BME280;40708;50.364;7.550;2023-04-07T01:15:30;100660.47;;;8.06;100.00
54808;BME280;40708;50.364;7.550;2023-04-07T01:18:07;100659.63;;;8.09;100.00
54808;BME280;40708;50.364;7.550;2023-04-07T01:20:33;100667.50;;;8.06;100.00
54808;BME280;40708;50.364;7.550;2023-04-07T01:23:03;100659.63;;;8.09;100.00
54808;BME280;40708;50.364;7.550;2023-04-07T01:28:43;100656.13;;;8.10;100.00
54808;BME280;40708;50.364;7.550;2023-04-07T01:31:14;100649.06;;;8.10;100.00
54808;BME280;40708;50.364;7.550;2023-04-07T01:33:43;100653.44;;;8.08;100.00
54808;BME280;40708;50.364;7.550;2023-04-07T01:36:09;100664.00;;;8.08;100.00
54808;BME280;40708;50.364;7.550;2023-04-07T01:38:36;100651.69;;;8.09;100.00
54808;BME280;40708;50.364;7.550;2023-04-07T01:41:03;100654.28;;;8.04;100.00
54808;BME280;40708;50.364;7.550;2023-04-07T01:43:29;100662.22;;;8.06;100.00
54808;BME280;40708;50.364;7.550;2023-04-07T01:45:56;100655.22;;;8.11;100.00
54808;BME280;40708;50.364;7.550;2023-04-07T01:48:22;100656.13;;;8.10;100.00
54808;BME280;40708;50.364;7.550;2023-04-07T01:50:49;100658.81;;;8.14;100.00
54808;BME280;40708;50.364;7.550;2023-04-07T01:53:15;100652.63;;;8.15;100.00
54808;BME280;40708;50.364;7.550;2023-04-07T01:55:42;100647.34;;;8.15;100.00
54808;BME280;40708;50.364;7.550;2023-04-07T01:58:08;100648.25;;;8.16;100.00
54808;BME280;40708;50.364;7.550;2023-04-07T02:00:34;100647.38;;;8.17;100.00
54808;BME280;40708;50.364;7.550;2023-04-07T02:03:08;100646.50;;;8.16;100.00
54808;BME280;40708;50.364;7.550;2023-04-07T02:05:37;100636.78;;;8.15;100.00
54808;BME280;40708;50.364;7.550;2023-04-07T02:08:04;100643.91;;;8.19;100.00
54808;BME280;40708;50.364;7.550;2023-04-07T02:10:34;100648.28;;;8.19;100.00
54808;BME280;40708;50.364;7.550;2023-04-07T02:13:04;100651.81;;;8.19;100.00
54808;BME280;40708;50.364;7.550;2023-04-07T02:15:30;100636.00;;;8.22;100.00
54808;BME280;40708;50.364;7.550;2023-04-07T02:18:00;100643.97;;;8.25;100.00
54808;BME280;40708;50.364;7.550;2023-04-07T02:20:27;100643.09;;;8.25;100.00
54808;BME280;40708;50.364;7.550;2023-04-07T02:22:53;100637.00;;;8.27;100.00
54808;BME280;40708;50.364;7.550;2023-04-07T02:25:30;100637.03;;;8.30;100.00
54808;BME280;40708;50.364;7.550;2023-04-07T02:27:57;100629.06;;;8.29;100.00
54808;BME280;40708;50.364;7.550;2023-04-07T02:30:24;100637.97;;;8.34;100.00
54808;BME280;40708;50.364;7.550;2023-04-07T02:32:49;100626.50;;;8.35;100.00
54808;BME280;40708;50.364;7.550;2023-04-07T02:35:15;100628.31;;;8.39;100.00
54808;BME280;40708;50.364;7.550;2023-04-07T02:37:41;100632.72;;;8.38;100.00
54808;BME280;40708;50.364;7.550;2023-04-07T02:40:07;100626.59;;;8.41;100.00
54808;BME280;40708;50.364;7.550;2023-04-07T02:42:32;100631.88;;;8.41;100.00
54808;BME280;40708;50.364;7.550;2023-04-07T02:44:58;100637.16;;;8.43;100.00
54808;BME280;40708;50.364;7.550;2023-04-07T02:47:24;100638.06;;;8.42;100.00
54808;BME280;40708;50.364;7.550;2023-04-07T02:49:50;100640.69;;;8.42;100.00
54808;BME280;40708;50.364;7.550;2023-04-07T02:52:15;100643.25;;;8.37;100.00
54808;BME280;40708;50.364;7.550;2023-04-07T02:54:41;100642.44;;;8.40;100.00
54808;BME280;40708;50.364;7.550;2023-04-07T02:57:06;100646.84;;;8.41;100.00
54808;BME280;40708;50.364;7.550;2023-04-07T02:59:31;100649.47;;;8.41;100.00
54808;BME280;40708;50.364;7.550;2023-04-07T03:01:57;100646.84;;;8.41;100.00
54808;BME280;40708;50.364;7.550;2023-04-07T03:04:22;100650.34;;;8.38;100.00
54808;BME280;40708;50.364;7.550;2023-04-07T03:06:47;100647.66;;;8.33;100.00
54808;BME280;40708;50.364;7.550;2023-04-07T03:09:13;100650.25;;;8.32;100.00
54808;BME280;40708;50.364;7.550;2023-04-07T03:11:38;100649.44;;;8.36;100.00
54808;BME280;40708;50.364;7.550;2023-04-07T03:14:05;100655.63;;;8.36;100.00
54808;BME280;40708;50.364;7.550;2023-04-07T03:16:30;100656.47;;;8.34;100.00
54808;BME280;40708;50.364;7.550;2023-04-07T03:18:56;100653.84;;;8.35;100.00
54808;BME280;40708;50.364;7.550;2023-04-07T03:21:21;100664.41;;;8.37;100.00
54808;BME280;40708;50.364;7.550;2023-04-07T03:23:46;100662.66;;;8.37;100.00
54808;BME280;40708;50.364;7.550;2023-04-07T03:26:12;100667.06;;;8.37;100.00
54808;BME280;40708;50.364;7.550;2023-04-07T03:28:37;100670.59;;;8.36;100.00
54808;BME280;40708;50.364;7.550;2023-04-07T03:31:02;100680.25;;;8.35;100.00
54808;BME280;40708;50.364;7.550;2023-04-07T03:33:28;100672.34;;;8.37;100.00
54808;BME280;40708;50.364;7.550;2023-04-07T03:35:53;100670.59;;;8.36;100.00
54808;BME280;40708;50.364;7.550;2023-04-07T03:38:18;100665.31;;;8.36;100.00
54808;BME280;40708;50.364;7.550;2023-04-07T03:40:43;100678.47;;;8.33;100.00
54808;BME280;40708;50.364;7.550;2023-04-07T03:43:09;100679.38;;;8.35;100.00
54808;BME280;40708;50.364;7.550;2023-04-07T03:45:38;100668.78;;;8.33;100.00
54808;BME280;40708;50.364;7.550;2023-04-07T03:48:03;100682.91;;;8.34;100.00
54808;BME280;40708;50.364;7.550;2023-04-07T03:50:29;100682.88;;;8.31;100.00
54808;BME280;40708;50.364;7.550;2023-04-07T03:52:54;100689.00;;;8.30;100.00
54808;BME280;40708;50.364;7.550;2023-04-07T03:55:19;100695.22;;;8.33;100.00
54808;BME280;40708;50.364;7.550;2023-04-07T03:57:45;100699.63;;;8.33;100.00
54808;BME280;40708;50.364;7.550;2023-04-07T04:00:11;100694.28;;;8.28;100.00
54808;BME280;40708;50.364;7.550;2023-04-07T04:02:37;100709.16;;;8.25;100.00
54808;BME280;40708;50.364;7.550;2023-04-07T04:05:02;100720.72;;;8.28;100.00
54808;BME280;40708;50.364;7.550;2023-04-07T04:07:28;100710.97;;;8.26;100.00
54808;BME280;40708;50.364;7.550;2023-04-07T04:09:53;100712.66;;;8.24;100.00
54808;BME280;40708;50.364;7.550;2023-04-07T04:12:18;100719.69;;;8.22;100.00
54808;BME280;40708;50.364;7.550;2023-04-07T04:14:43;100718.84;;;8.23;100.00
54808;BME280;40708;50.364;7.550;2023-04-07T04:17:09;100725.91;;;8.25;100.00
54808;BME280;40708;50.364;7.550;2023-04-07T04:19:34;100733.03;;;8.28;100.00
54808;BME280;40708;50.364;7.550;2023-04-07T04:21:59;100728.66;;;8.30;100.00
54808;BME280;40708;50.364;7.550;2023-04-07T04:24:24;100727.84;;;8.35;100.00
54808;BME280;40708;50.364;7.550;2023-04-07T04:26:50;100735.59;;;8.26;100.00
54808;BME280;40708;50.364;7.550;2023-04-07T04:29:15;100729.47;;;8.26;100.00
54808;BME280;40708;50.364;7.550;2023-04-07T04:31:41;100729.56;;;8.30;100.00
54808;BME280;40708;50.364;7.550;2023-04-07T04:34:07;100734.84;;;8.32;100.00
54808;BME280;40708;50.364;7.550;2023-04-07T04:36:33;100737.47;;;8.32;100.00
54808;BME280;40708;50.364;7.550;2023-04-07T04:38:58;100734.03;;;8.37;100.00
54808;BME280;40708;50.364;7.550;2023-04-07T04:41:23;100733.22;;;8.42;100.00
54808;BME280;40708;50.364;7.550;2023-04-07T04:43:48;100733.19;;;8.40;100.00
54808;BME280;40708;50.364;7.550;2023-04-07T04:46:14;100732.28;;;8.38;100.00
54808;BME280;40708;50.364;7.550;2023-04-07T04:48:39;100735.88;;;8.42;100.00
54808;BME280;40708;50.364;7.550;2023-04-07T04:51:05;100734.13;;;8.42;100.00
54808;BME280;40708;50.364;7.550;2023-04-07T04:53:31;100730.63;;;8.45;100.00
54808;BME280;40708;50.364;7.550;2023-04-07T04:55:56;100730.63;;;8.45;100.00
54808;BME280;40708;50.364;7.550;2023-04-07T04:58:21;100730.53;;;8.40;100.00
54808;BME280;40708;50.364;7.550;2023-04-07T05:00:47;100737.66;;;8.44;100.00
54808;BME280;40708;50.364;7.550;2023-04-07T05:03:12;100737.66;;;8.44;100.00
54808;BME280;40708;50.364;7.550;2023-04-07T05:05:37;100740.25;;;8.40;100.00
54808;BME280;40708;50.364;7.550;2023-04-07T05:08:02;100744.66;;;8.41;100.00
54808;BME280;40708;50.364;7.550;2023-04-07T05:10:28;100739.41;;;8.44;100.00
54808;BME280;40708;50.364;7.550;2023-04-07T05:12:53;100747.34;;;8.44;100.00
54808;BME280;40708;50.364;7.550;2023-04-07T05:15:18;100754.34;;;8.40;100.00
54808;BME280;40708;50.364;7.550;2023-04-07T05:17:44;100756.19;;;8.44;100.00
54808;BME280;40708;50.364;7.550;2023-04-07T05:20:15;100753.53;;;8.46;100.00
54808;BME280;40708;50.364;7.550;2023-04-07T05:22:40;100756.31;;;8.53;100.00
54808;BME280;40708;50.364;7.550;2023-04-07T05:25:06;100752.78;;;8.53;100.00
54808;BME280;40708;50.364;7.550;2023-04-07T05:27:32;100758.09;;;8.56;100.00
54808;BME280;40708;50.364;7.550;2023-04-07T05:29:57;100751.03;;;8.53;100.00
54808;BME280;40708;50.364;7.550;2023-04-07T05:32:23;100756.38;;;8.58;100.00
54808;BME280;40708;50.364;7.550;2023-04-07T05:34:48;100749.28;;;8.57;100.00
54808;BME280;40708;50.364;7.550;2023-04-07T05:37:13;100750.22;;;8.59;100.00
54808;BME280;40708;50.364;7.550;2023-04-07T05:39:38;100747.63;;;8.63;100.00
54808;BME280;40708;50.364;7.550;2023-04-07T05:42:04;100748.47;;;8.61;100.00
54808;BME280;40708;50.364;7.550;2023-04-07T05:44:29;100744.09;;;8.64;100.00
54808;BME280;40708;50.364;7.550;2023-04-07T05:46:54;100751.16;;;8.64;100.00
54808;BME280;40708;50.364;7.550;2023-04-07T05:49:20;100754.66;;;8.61;100.00
54808;BME280;40708;50.364;7.550;2023-04-07T05:51:45;100754.66;;;8.64;100.00
54808;BME280;40708;50.364;7.550;2023-04-07T05:54:10;100760.91;;;8.68;100.00
54808;BME280;40708;50.364;7.550;2023-04-07T05:56:36;100760.94;;;8.69;100.00
54808;BME280;40708;50.364;7.550;2023-04-07T05:59:01;100766.19;;;8.66;100.00
54808;BME280;40708;50.364;7.550;2023-04-07T06:01:28;100768.78;;;8.65;100.00
54808;BME280;40708;50.364;7.550;2023-04-07T06:03:53;100772.38;;;8.67;100.00
54808;BME280;40708;50.364;7.550;2023-04-07T06:06:18;100770.53;;;8.64;100.00
54808;BME280;40708;50.364;7.550;2023-04-07T06:08:43;100773.28;;;8.69;100.00
54808;BME280;40708;50.364;7.550;2023-04-07T06:11:09;100769.72;;;8.70;100.00
54808;BME280;40708;50.364;7.550;2023-04-07T06:13:34;100766.28;;;8.72;100.00
54808;BME280;40708;50.364;7.550;2023-04-07T06:16:00;100774.94;;;8.62;100.00
54808;BME280;40708;50.364;7.550;2023-04-07T06:18:25;100774.06;;;8.63;100.00
54808;BME280;40708;50.364;7.550;2023-04-07T06:20:50;100778.47;;;8.63;100.00
54808;BME280;40708;50.364;7.550;2023-04-07T06:23:15;100782.00;;;8.65;100.00
54808;BME280;40708;50.364;7.550;2023-04-07T06:25:41;100777.53;;;8.59;100.00
54808;BME280;40708;50.364;7.550;2023-04-07T06:28:06;100780.22;;;8.61;100.00
54808;BME280;40708;50.364;7.550;2023-04-07T06:30:31;100796.03;;;8.59;100.00
54808;BME280;40708;50.364;7.550;2023-04-07T06:32:58;100792.50;;;8.57;100.00
54808;BME280;40708;50.364;7.550;2023-04-07T06:35:23;100793.44;;;8.61;100.00
54808;BME280;40708;50.364;7.550;2023-04-07T06:37:50;100796.13;;;8.64;100.00
54808;BME280;40708;50.364;7.550;2023-04-07T06:40:16;100802.25;;;8.61;100.00
54808;BME280;40708;50.364;7.550;2023-04-07T06:42:41;100797.84;;;8.62;100.00
54808;BME280;40708;50.364;7.550;2023-04-07T06:45:07;100802.31;;;8.67;100.00
54808;BME280;40708;50.364;7.550;2023-04-07T06:47:32;100803.16;;;8.63;100.00
54808;BME280;40708;50.364;7.550;2023-04-07T06:49:58;100800.47;;;8.62;100.00
54808;BME280;40708;50.364;7.550;2023-04-07T06:52:23;100800.56;;;8.66;100.00
54808;BME280;40708;50.364;7.550;2023-04-07T06:54:48;100804.88;;;8.60;100.00
54808;BME280;40708;50.364;7.550;2023-04-07T06:57:14;100804.06;;;8.64;100.00
54808;BME280;40708;50.364;7.550;2023-04-07T06:59:39;100807.56;;;8.63;100.00
54808;BME280;40708;50.364;7.550;2023-04-07T07:02:05;100803.97;;;8.59;100.00
54808;BME280;40708;50.364;7.550;2023-04-07T07:04:32;100804.78;;;8.54;100.00
54808;BME280;40708;50.364;7.550;2023-04-07T07:06:57;100799.50;;;8.54;100.00
54808;BME280;40708;50.364;7.550;2023-04-07T07:09:23;100810.88;;;8.48;100.00
54808;BME280;40708;50.364;7.550;2023-04-07T07:11:48;100822.28;;;8.46;100.00
54808;BME280;40708;50.364;7.550;2023-04-07T07:14:13;100823.19;;;8.45;100.00
54808;BME280;40708;50.364;7.550;2023-04-07T07:16:39;100832.91;;;8.49;100.00
54808;BME280;40708;50.364;7.550;2023-04-07T07:19:05;100832.81;;;8.43;100.00
54808;BME280;40708;50.364;7.550;2023-04-07T07:21:30;100838.16;;;8.44;100.00
54808;BME280;40708;50.364;7.550;2023-04-07T07:23:56;100839.78;;;8.37;100.00
54808;BME280;40708;50.364;7.550;2023-04-07T07:26:21;100853.13;;;8.44;100.00
54808;BME280;40708;50.364;7.550;2023-04-07T07:28:46;100857.53;;;8.45;100.00
54808;BME280;40708;50.364;7.550;2023-04-07T07:31:12;100857.59;;;8.49;100.00
54808;BME280;40708;50.364;7.550;2023-04-07T07:33:39;100853.09;;;8.42;100.00
54808;BME280;40708;50.364;7.550;2023-04-07T07:36:06;100860.16;;;8.43;100.00
54808;BME280;40708;50.364;7.550;2023-04-07T07:38:31;100869.94;;;8.49;100.00
54808;BME280;40708;50.364;7.550;2023-04-07T07:40:56;100874.38;;;8.51;100.00
54808;BME280;40708;50.364;7.550;2023-04-07T07:43:22;100877.00;;;8.50;100.00
54808;BME280;40708;50.364;7.550;2023-04-07T07:45:47;100873.47;;;8.48;100.00
54808;BME280;40708;50.364;7.550;2023-04-07T07:48:12;100884.16;;;8.57;100.00
54808;BME280;40708;50.364;7.550;2023-04-07T07:50:37;100873.41;;;8.46;100.00
54808;BME280;40708;50.364;7.550;2023-04-07T07:53:03;100884.78;;;8.39;100.00
54808;BME280;40708;50.364;7.550;2023-04-07T07:55:28;100884.84;;;8.42;100.00
54808;BME280;40708;50.364;7.550;2023-04-07T07:57:53;100882.13;;;8.39;100.00
54808;BME280;40708;50.364;7.550;2023-04-07T08:00:20;100884.00;;;8.45;100.00
54808;BME280;40708;50.364;7.550;2023-04-07T08:02:45;100897.09;;;8.38;100.00
54808;BME280;40708;50.364;7.550;2023-04-07T08:05:10;100904.25;;;8.44;100.00
54808;BME280;40708;50.364;7.550;2023-04-07T08:07:37;100900.75;;;8.45;100.00
54808;BME280;40708;50.364;7.550;2023-04-07T08:10:02;100914.72;;;8.38;100.00
54808;BME280;40708;50.364;7.550;2023-04-07T08:12:28;100920.13;;;8.44;100.00
54808;BME280;40708;50.364;7.550;2023-04-07T08:14:53;100935.25;;;8.53;100.00
54808;BME280;40708;50.364;7.550;2023-04-07T08:17:18;100925.47;;;8.49;100.00
54808;BME280;40708;50.364;7.550;2023-04-07T08:19:43;100923.78;;;8.52;100.00
54808;BME280;40708;50.364;7.550;2023-04-07T08:22:09;100931.81;;;8.58;100.00
54808;BME280;40708;50.364;7.550;2023-04-07T08:24:35;100933.72;;;8.67;100.00
54808;BME280;40708;50.364;7.550;2023-04-07T08:27:00;100931.88;;;8.64;100.00
54808;BME280;40708;50.364;7.550;2023-04-07T08:29:25;100935.38;;;8.62;100.00
54808;BME280;40708;50.364;7.550;2023-04-07T08:31:50;100929.38;;;8.72;100.00
54808;BME280;40708;50.364;7.550;2023-04-07T08:34:16;100932.97;;;8.77;100.00
54808;BME280;40708;50.364;7.550;2023-04-07T08:36:42;100949.03;;;8.89;100.00
54808;BME280;40708;50.364;7.550;2023-04-07T08:39:08;100943.88;;;8.99;100.00
54808;BME280;40708;50.364;7.550;2023-04-07T08:41:38;100940.28;;;8.94;100.00
54808;BME280;40708;50.364;7.550;2023-04-07T08:44:03;100931.34;;;8.86;100.00
54808;BME280;40708;50.364;7.550;2023-04-07T08:46:29;100935.69;;;8.80;100.00
54808;BME280;40708;50.364;7.550;2023-04-07T08:48:55;100937.63;;;8.93;100.00
54808;BME280;40708;50.364;7.550;2023-04-07T08:51:31;100932.44;;;8.99;100.00
54808;BME280;40708;50.364;7.550;2023-04-07T08:54:04;100929.00;;;9.06;100.00
54808;BME280;40708;50.364;7.550;2023-04-07T08:56:32;100929.84;;;9.05;100.00
54808;BME280;40708;50.364;7.550;2023-04-07T08:58:59;100922.00;;;9.10;100.00
54808;BME280;40708;50.364;7.550;2023-04-07T09:01:25;100923.13;;;9.28;100.00
54808;BME280;40708;50.364;7.550;2023-04-07T09:03:51;100914.25;;;9.25;100.00
54808;BME280;40708;50.364;7.550;2023-04-07T09:06:16;100930.31;;;9.38;100.00
54808;BME280;40708;50.364;7.550;2023-04-07T09:08:41;100931.38;;;9.54;100.00
54808;BME280;40708;50.364;7.550;2023-04-07T09:11:07;100930.53;;;9.55;100.00
54808;BME280;40708;50.364;7.550;2023-04-07T09:13:32;100932.50;;;9.71;100.00
54808;BME280;40708;50.364;7.550;2023-04-07T09:16:00;100906.69;;;9.53;100.00
54808;BME280;40708;50.364;7.550;2023-04-07T09:18:27;100901.28;;;9.46;100.00
54808;BME280;40708;50.364;7.550;2023-04-07T09:20:59;100899.69;;;9.58;100.00
54808;BME280;40708;50.364;7.550;2023-04-07T09:25:55;100898.72;;;9.52;100.00
54808;BME280;40708;50.364;7.550;2023-04-07T09:28:21;100884.66;;;9.56;100.00
54808;BME280;40708;50.364;7.550;2023-04-07T09:30:53;100869.53;;;9.47;100.00
54808;BME280;40708;50.364;7.550;2023-04-07T09:33:26;100870.44;;;9.48;100.00
54808;BME280;40708;50.364;7.550;2023-04-07T09:35:52;100872.31;;;9.59;100.00
54808;BME280;40708;50.364;7.550;2023-04-07T09:38:17;100869.91;;;9.82;100.00
54808;BME280;40708;50.364;7.550;2023-04-07T09:40:43;100861.09;;;9.83;100.00
54808;BME280;40708;50.364;7.550;2023-04-07T09:43:14;100847.03;;;9.89;100.00
54808;BME280;40708;50.364;7.550;2023-04-07T09:45:40;100835.66;;;10.02;100.00
54808;BME280;40708;50.364;7.550;2023-04-07T09:48:06;100830.38;;;10.05;100.00
54808;BME280;40708;50.364;7.550;2023-04-07T09:50:34;100822.38;;;10.03;100.00
54808;BME280;40708;50.364;7.550;2023-04-07T09:53:00;100824.09;;;9.95;100.00
54808;BME280;40708;50.364;7.550;2023-04-07T09:55:27;100824.00;;;9.83;100.00
54808;BME280;40708;50.364;7.550;2023-04-07T09:57:53;100840.81;;;9.88;100.00
54808;BME280;40708;50.364;7.550;2023-04-07T10:00:22;100843.44;;;9.85;100.00
54808;BME280;40708;50.364;7.550;2023-04-07T10:02:48;100833.47;;;9.60;100.00
54808;BME280;40708;50.364;7.550;2023-04-07T10:05:15;100844.09;;;9.62;100.00
54808;BME280;40708;50.364;7.550;2023-04-07T10:07:42;100847.56;;;9.57;100.00
54808;BME280;40708;50.364;7.550;2023-04-07T10:10:07;100855.41;;;9.47;100.00
54808;BME280;40708;50.364;7.550;2023-04-07T10:12:34;100859.78;;;9.46;100.00
54808;BME280;40708;50.364;7.550;2023-04-07T10:15:01;100859.84;;;9.49;100.00
54808;BME280;40708;50.364;7.550;2023-04-07T10:17:27;100851.88;;;9.48;100.00
54808;BME280;40708;50.364;7.550;2023-04-07T10:19:53;100858.13;;;9.54;100.00
54808;BME280;40708;50.364;7.550;2023-04-07T10:22:20;100870.50;;;9.55;100.00
54808;BME280;40708;50.364;7.550;2023-04-07T10:25:05;100877.72;;;9.69;100.00
54808;BME280;40708;50.364;7.550;2023-04-07T10:27:43;100888.56;;;9.91;100.00
54808;BME280;40708;50.364;7.550;2023-04-07T10:30:17;100877.06;;;9.91;100.00
54808;BME280;40708;50.364;7.550;2023-04-07T10:32:50;100870.78;;;9.80;100.00
54808;BME280;40708;50.364;7.550;2023-04-07T10:35:16;100876.22;;;9.93;100.00
54808;BME280;40708;50.364;7.550;2023-04-07T10:38:09;100874.25;;;9.73;100.00
54808;BME280;40708;50.364;7.550;2023-04-07T10:40:37;100889.38;;;9.87;100.00
54808;BME280;40708;50.364;7.550;2023-04-07T10:43:03;100884.84;;;9.76;100.00
54808;BME280;40708;50.364;7.550;2023-04-07T10:48:14;100884.16;;;9.93;100.00
54808;BME280;40708;50.364;7.550;2023-04-07T10:50:39;100869.19;;;9.97;100.00
54808;BME280;40708;50.364;7.550;2023-04-07T10:53:12;100872.69;;;9.97;100.00
54808;BME280;40708;50.364;7.550;2023-04-07T10:55:42;100878.09;;;10.06;100.00
54808;BME280;40708;50.364;7.550;2023-04-07T10:58:25;100880.63;;;9.93;100.00
54808;BME280;40708;50.364;7.550;2023-04-07T11:03:24;100871.97;;;10.12;100.00
54808;BME280;40708;50.364;7.550;2023-04-07T11:05:49;100856.97;;;10.12;100.00
54808;BME280;40708;50.364;7.550;2023-04-07T11:08:14;100868.41;;;10.11;100.00
54808;BME280;40708;50.364;7.550;2023-04-07T11:10:46;100867.69;;;10.28;100.00
54808;BME280;40708;50.364;7.550;2023-04-07T11:13:12;100878.38;;;10.34;100.00
54808;BME280;40708;50.364;7.550;2023-04-07T11:15:37;100873.81;;;10.18;100.00
54808;BME280;40708;50.364;7.550;2023-04-07T11:20:40;100859.53;;;10.06;100.00
54808;BME280;40708;50.364;7.550;2023-04-07T11:23:05;100857.06;;;10.25;100.00
54808;BME280;40708;50.364;7.550;2023-04-07T11:25:31;100847.97;;;9.97;100.00
54808;BME280;40708;50.364;7.550;2023-04-07T11:27:58;100848.97;;;10.09;100.00
54808;BME280;40708;50.364;7.550;2023-04-07T11:30:23;100862.47;;;10.32;100.00
54808;BME280;40708;50.364;7.550;2023-04-07T11:32:49;100856.44;;;10.54;100.00
54808;BME280;40708;50.364;7.550;2023-04-07T11:35:15;100847.78;;;10.90;100.00
54808;BME280;40708;50.364;7.550;2023-04-07T11:37:40;100832.75;;;10.86;100.00
54808;BME280;40708;50.364;7.550;2023-04-07T11:40:07;100804.63;;;11.30;100.00
54808;BME280;40708;50.364;7.550;2023-04-07T11:42:37;100787.78;;;11.24;100.00
54808;BME280;40708;50.364;7.550;2023-04-07T11:45:03;100778.97;;;11.51;100.00
54808;BME280;40708;50.364;7.550;2023-04-07T11:47:38;100741.81;;;11.63;100.00
54808;BME280;40708;50.364;7.550;2023-04-07T11:50:04;100709.06;;;11.70;100.00
54808;BME280;40708;50.364;7.550;2023-04-07T11:52:47;100707.22;;;11.40;100.00
54808;BME280;40708;50.364;7.550;2023-04-07T11:55:30;100692.22;;;11.75;100.00
54808;BME280;40708;50.364;7.550;2023-04-07T11:58:04;100689.53;;;11.41;100.00
54808;BME280;40708;50.364;7.550;2023-04-07T12:00:30;100692.19;;;11.65;100.00
54808;BME280;40708;50.364;7.550;2023-04-07T12:02:56;100700.19;;;11.81;100.00
54808;BME280;40708;50.364;7.550;2023-04-07T12:05:21;100700.16;;;11.48;100.00
54808;BME280;40708;50.364;7.550;2023-04-07T12:07:52;100694.84;;;11.48;100.00
54808;BME280;40708;50.364;7.550;2023-04-07T12:10:22;100693.09;;;11.68;100.00
54808;BME280;40708;50.364;7.550;2023-04-07T12:12:49;100694.88;;;11.84;100.00
54808;BME280;40708;50.364;7.550;2023-04-07T12:15:15;100655.88;;;11.91;100.00
54808;BME280;40708;50.364;7.550;2023-04-07T12:17:45;100647.91;;;11.68;100.00
54808;BME280;40708;50.364;7.550;2023-04-07T12:20:11;100648.75;;;12.05;100.00
54808;BME280;40708;50.364;7.550;2023-04-07T12:22:37;100638.97;;;12.10;100.00
54808;BME280;40708;50.364;7.550;2023-04-07T12:25:02;100628.38;;;12.06;100.00
54808;BME280;40708;50.364;7.550;2023-04-07T12:27:28;100643.47;;;11.98;100.00
54808;BME280;40708;50.364;7.550;2023-04-07T12:29:53;100647.03;;;11.60;100.00
54808;BME280;40708;50.364;7.550;2023-04-07T12:32:18;100661.22;;;11.79;100.00
54808;BME280;40708;50.364;7.550;2023-04-07T12:34:43;100664.72;;;12.04;100.00
54808;BME280;40708;50.364;7.550;2023-04-07T12:37:09;100647.84;;;12.08;100.00
54808;BME280;40708;50.364;7.550;2023-04-07T12:39:34;100640.81;;;11.85;100.00
54808;BME280;40708;50.364;7.550;2023-04-07T12:41:59;100650.56;;;11.89;100.00
54808;BME280;40708;50.364;7.550;2023-04-07T12:44:25;100634.56;;;11.99;100.00
54808;BME280;40708;50.364;7.550;2023-04-07T12:46:50;100653.22;;;11.71;100.00
54808;BME280;40708;50.364;7.550;2023-04-07T12:49:16;100641.69;;;11.59;100.00
54808;BME280;40708;50.364;7.550;2023-04-07T12:51:41;100644.34;;;11.86;100.00
54808;BME280;40708;50.364;7.550;2023-04-07T12:54:06;100647.84;;;12.08;100.00
54808;BME280;40708;50.364;7.550;2023-04-07T12:56:32;100642.59;;;11.62;100.00
54808;BME280;40708;50.364;7.550;2023-04-07T12:58:57;100649.69;;;11.69;100.00
54808;BME280;40708;50.364;7.550;2023-04-07T13:01:22;100649.66;;;11.98;100.00